createdAt,value
2022-11-28T00:01:17.626Z,95.51
2022-11-28T00:05:19.521Z,95.55
2022-11-28T00:09:21.095Z,95.54
2022-11-28T00:13:20.613Z,95.93
2022-11-28T00:17:19.933Z,96.18
2022-11-28T00:21:21.618Z,96.57
2022-11-28T00:25:21.476Z,96.88
2022-11-28T00:29:21.095Z,97.30
2022-11-28T00:33:20.026Z,97.46
2022-11-28T00:37:21.554Z,97.51
2022-11-28T00:41:23.423Z,98.08
2022-11-28T00:45:22.639Z,98.85
2022-11-28T00:49:22.193Z,98.50
2022-11-28T00:53:23.853Z,98.74
2022-11-28T00:57:23.407Z,99.05
2022-11-28T01:01:23.608Z,99.09
2022-11-28T01:05:23.213Z,99.12
2022-11-28T01:09:25.468Z,99.03
2022-11-28T01:13:25.060Z,98.89
2022-11-28T01:17:24.306Z,99.09
2022-11-28T01:21:23.991Z,99.54
2022-11-28T01:25:25.821Z,99.94
2022-11-28T01:29:25.515Z,100.00
2022-11-28T01:33:24.777Z,100.00
2022-11-28T01:37:24.353Z,100.00
2022-11-28T01:41:27.225Z,99.94
2022-11-28T01:45:29.951Z,99.71
2022-11-28T01:49:33.667Z,100.00
2022-11-28T01:53:36.748Z,100.00
2022-11-28T01:57:38.727Z,100.00
2022-11-28T02:01:39.203Z,100.00
2022-11-28T02:05:39.093Z,100.00
2022-11-28T02:09:38.142Z,100.00
2022-11-28T02:13:43.967Z,100.00
2022-11-28T02:17:58.348Z,100.00
2022-11-28T02:22:02.935Z,100.00
2022-11-28T02:26:42.761Z,100.00
2022-11-28T02:30:56.409Z,100.00
2022-11-28T02:35:04.859Z,100.00
2022-11-28T02:39:13.447Z,100.00
2022-11-28T02:43:22.192Z,99.15
2022-11-28T02:47:28.325Z,98.76
2022-11-28T02:51:34.836Z,98.08
2022-11-28T02:55:34.613Z,97.98
2022-11-28T02:59:46.369Z,97.21
2022-11-28T03:04:01.113Z,97.48
2022-11-28T03:08:12.695Z,97.00
2022-11-28T03:12:23.058Z,96.56
2022-11-28T03:16:30.437Z,96.89
2022-11-28T03:20:38.482Z,96.99
2022-11-28T03:24:46.262Z,96.41
2022-11-28T03:28:53.928Z,95.97
2022-11-28T03:32:56.858Z,95.61
2022-11-28T03:37:01.925Z,95.52
2022-11-28T03:41:09.712Z,94.77
2022-11-28T03:45:14.533Z,94.61
2022-11-28T03:49:17.908Z,94.38
2022-11-28T03:53:23.915Z,93.76
2022-11-28T03:57:33.540Z,93.07
2022-11-28T04:01:36.670Z,92.84
2022-11-28T04:05:46.512Z,92.86
2022-11-28T04:09:49.806Z,93.26
2022-11-28T04:13:58.394Z,93.62
2022-11-28T04:18:02.800Z,93.86
2022-11-28T04:22:06.670Z,93.72
2022-11-28T04:26:12.625Z,93.42
2022-11-28T04:30:15.486Z,93.68
2022-11-28T04:34:19.195Z,93.56
2022-11-28T04:38:19.610Z,93.62
2022-11-28T04:42:22.672Z,93.56
2022-11-28T04:46:27.899Z,93.71
2022-11-28T04:50:33.054Z,93.61
2022-11-28T04:54:40.136Z,93.90
2022-11-28T04:58:43.992Z,93.86
2022-11-28T05:02:48.180Z,93.35
2022-11-28T05:06:47.905Z,93.59
2022-11-28T05:10:48.469Z,93.67
2022-11-28T05:14:48.162Z,93.85
2022-11-28T05:18:50.200Z,93.98
2022-11-28T05:22:49.778Z,93.98
2022-11-28T05:26:49.450Z,93.96
2022-11-28T05:30:57.927Z,93.48
2022-11-28T05:34:59.812Z,92.34
2022-11-28T05:38:59.405Z,92.98
2022-11-28T05:42:58.441Z,92.62
2022-11-28T05:46:57.953Z,92.71
2022-11-28T05:50:59.353Z,93.07
2022-11-28T05:54:59.630Z,92.58
2022-11-28T05:58:59.558Z,92.77
2022-11-28T06:03:02.367Z,92.73
2022-11-28T06:07:04.096Z,92.06
2022-11-28T06:11:03.683Z,91.95
2022-11-28T06:15:02.963Z,91.03
2022-11-28T06:19:04.523Z,91.64
2022-11-28T06:23:06.833Z,91.65
2022-11-28T06:27:06.670Z,91.93
2022-11-28T06:31:06.500Z,91.62
2022-11-28T06:35:06.416Z,91.28
2022-11-28T06:39:12.615Z,91.02
2022-11-28T06:43:12.264Z,91.19
2022-11-28T06:47:11.720Z,91.09
2022-11-28T06:51:11.549Z,90.84
2022-11-28T06:55:13.424Z,91.25
2022-11-28T06:59:14.080Z,91.91
2022-11-28T07:03:14.190Z,91.81
2022-11-28T07:07:16.685Z,91.83
2022-11-28T07:11:20.632Z,92.54
2022-11-28T07:15:20.293Z,92.49
2022-11-28T07:19:22.769Z,92.95
2022-11-28T07:23:22.384Z,92.52
2022-11-28T07:27:23.843Z,92.33
2022-11-28T07:31:31.219Z,93.34
2022-11-28T07:35:30.314Z,93.57
2022-11-28T07:39:30.199Z,94.22
2022-11-28T07:43:32.094Z,94.60
2022-11-28T07:47:31.603Z,94.94
2022-11-28T07:51:32.152Z,94.56
2022-11-28T07:55:31.678Z,94.26
2022-11-28T07:59:33.342Z,94.39
2022-11-28T08:03:32.825Z,93.60
2022-11-28T08:07:37.863Z,94.55
2022-11-28T08:11:50.947Z,94.57
2022-11-28T08:15:52.700Z,93.39
2022-11-28T08:19:52.253Z,93.00
2022-11-28T08:23:52.555Z,92.80
2022-11-28T08:27:52.177Z,92.35
2022-11-28T08:31:53.608Z,91.20
2022-11-28T08:35:53.549Z,92.44
2022-11-28T08:39:53.166Z,93.38
2022-11-28T08:43:52.496Z,93.72
2022-11-28T08:47:54.547Z,93.40
2022-11-28T08:51:54.100Z,92.33
2022-11-28T08:55:53.714Z,91.15
2022-11-28T08:59:52.984Z,91.29
2022-11-28T09:03:55.867Z,90.48
2022-11-28T09:07:56.718Z,90.56
2022-11-28T09:11:56.346Z,90.70
2022-11-28T09:15:55.431Z,90.80
2022-11-28T09:19:57.257Z,91.00
2022-11-28T09:23:58.182Z,89.41
2022-11-28T09:27:57.679Z,88.39
2022-11-28T09:31:56.785Z,86.72
2022-11-28T09:35:58.286Z,86.90
2022-11-28T09:40:12.506Z,86.08
2022-11-28T09:44:20.845Z,85.55
2022-11-28T09:48:28.262Z,85.24
2022-11-28T09:52:35.833Z,84.90
2022-11-28T09:56:35.576Z,85.28
2022-11-28T10:00:40.041Z,84.00
2022-11-28T10:04:46.565Z,83.61
2022-11-28T10:09:10.016Z,84.15
2022-11-28T10:13:17.041Z,83.85
2022-11-28T10:17:26.848Z,82.94
2022-11-28T10:21:32.737Z,82.89
2022-11-28T10:25:37.364Z,82.63
2022-11-28T10:29:58.301Z,82.58
2022-11-28T10:34:02.843Z,81.34
2022-11-28T10:38:02.550Z,82.45
2022-11-28T10:42:15.846Z,81.71
2022-11-28T10:46:37.650Z,80.40
2022-11-28T10:50:44.872Z,81.12
2022-11-28T10:55:15.654Z,80.21
2022-11-28T10:59:30.753Z,80.71
2022-11-28T11:03:32.567Z,80.94
2022-11-28T11:07:33.877Z,79.76
2022-11-28T11:11:39.132Z,79.48
2022-11-28T11:15:40.918Z,79.75
2022-11-28T11:19:41.878Z,79.79
2022-11-28T11:23:41.605Z,79.75
2022-11-28T11:27:50.116Z,79.83
2022-11-28T11:31:55.106Z,79.64
2022-11-28T11:35:54.606Z,78.12
2022-11-28T11:39:55.243Z,78.18
2022-11-28T11:43:54.303Z,78.52
2022-11-28T11:47:56.063Z,78.74
2022-11-28T11:51:58.569Z,79.47
2022-11-28T11:56:02.289Z,78.85
2022-11-28T12:00:08.709Z,78.78
2022-11-28T12:04:43.941Z,79.55
2022-11-28T12:08:46.037Z,79.83
2022-11-28T12:12:45.552Z,79.14
2022-11-28T12:16:54.538Z,80.44
2022-11-28T12:21:12.386Z,80.55
2022-11-28T12:25:24.447Z,78.90
2022-11-28T12:29:32.921Z,79.24
2022-11-28T12:33:47.268Z,79.30
2022-11-28T12:38:13.064Z,79.63
2022-11-28T12:42:24.693Z,80.16
2022-11-28T12:46:36.977Z,79.98
2022-11-28T12:50:40.452Z,79.47
2022-11-28T12:55:09.822Z,79.06
2022-11-28T12:59:25.829Z,79.62
2022-11-28T13:03:40.658Z,80.02
2022-11-28T13:07:50.686Z,80.37
2022-11-28T13:12:06.674Z,80.04
2022-11-28T13:16:22.077Z,80.58
2022-11-28T13:20:31.352Z,81.24
2022-11-28T13:24:38.533Z,81.68
2022-11-28T13:28:46.613Z,82.25
2022-11-28T13:32:49.059Z,82.45
2022-11-28T13:42:00.930Z,80.01
2022-11-28T13:45:46.683Z,79.46
2022-11-28T13:49:45.663Z,80.61
2022-11-28T13:53:46.638Z,79.87
2022-11-28T13:57:45.696Z,79.02
2022-11-28T14:01:49.653Z,79.57
2022-11-28T14:05:49.333Z,78.77
2022-11-28T14:10:01.500Z,78.18
2022-11-28T14:14:21.024Z,78.06
2022-11-28T14:23:19.905Z,78.95
2022-11-28T14:27:23.617Z,80.02
2022-11-28T14:31:32.748Z,79.39
2022-11-28T14:36:08.085Z,79.78
2022-11-28T14:40:48.051Z,79.70
2022-11-28T14:44:50.485Z,79.58
2022-11-28T14:49:17.219Z,80.26
2022-11-28T14:53:45.219Z,79.91
2022-11-28T14:57:57.944Z,80.82
2022-11-28T15:02:05.751Z,81.32
2022-11-28T15:06:12.970Z,81.82
2022-11-28T15:10:22.516Z,82.21
2022-11-28T15:14:25.146Z,81.19
2022-11-28T15:18:27.959Z,81.81
2022-11-28T15:22:33.771Z,81.03
2022-11-28T15:26:35.671Z,80.79
2022-11-28T15:30:35.602Z,81.10
2022-11-28T15:34:36.700Z,81.65
2022-11-28T15:38:38.904Z,81.89
2022-11-28T15:42:41.336Z,81.04
2022-11-28T15:46:40.895Z,81.67
2022-11-28T15:50:51.168Z,82.38
2022-11-28T15:54:52.463Z,83.40
2022-11-28T15:58:55.731Z,84.20
2022-11-28T16:02:55.772Z,83.90
2022-11-28T16:06:58.575Z,85.10
2022-11-28T16:10:59.606Z,85.98
2022-11-28T16:15:04.795Z,86.23
2022-11-28T16:19:06.889Z,85.98
2022-11-28T16:23:12.023Z,85.52
2022-11-28T16:27:29.935Z,87.15
2022-11-28T16:31:32.015Z,88.94
2022-11-28T16:35:37.409Z,90.04
2022-11-28T16:39:37.710Z,91.56
2022-11-28T16:43:39.864Z,91.92
2022-11-28T16:47:42.032Z,92.60
2022-11-28T16:51:43.048Z,93.24
2022-11-28T16:55:46.510Z,92.93
2022-11-28T16:59:46.784Z,92.94
2022-11-28T17:03:55.123Z,93.09
2022-11-28T17:07:55.036Z,93.42
2022-11-28T17:11:59.321Z,92.29
2022-11-28T17:15:59.344Z,92.32
2022-11-28T17:20:02.678Z,92.18
2022-11-28T17:24:03.090Z,91.43
2022-11-28T17:28:02.092Z,92.16
2022-11-28T17:32:01.999Z,92.08
2022-11-28T17:36:05.629Z,92.15
2022-11-28T17:40:22.186Z,92.70
2022-11-28T17:44:24.127Z,92.97
2022-11-28T17:48:23.916Z,92.56
2022-11-28T17:52:29.749Z,93.25
2022-11-28T17:56:30.954Z,93.21
2022-11-28T18:00:32.404Z,93.60
2022-11-28T18:04:32.021Z,93.81
2022-11-28T18:08:33.816Z,93.96
2022-11-28T18:12:33.349Z,94.25
2022-11-28T18:16:32.733Z,92.66
2022-11-28T18:20:32.860Z,93.61
2022-11-28T18:24:35.303Z,94.04
2022-11-28T18:28:34.883Z,94.75
2022-11-28T18:32:34.910Z,94.38
2022-11-28T18:36:35.545Z,94.78
2022-11-28T18:40:38.871Z,94.09
2022-11-28T18:44:38.941Z,93.93
2022-11-28T18:48:39.819Z,94.67
2022-11-28T18:52:41.413Z,95.52
2022-11-28T18:56:46.871Z,95.07
2022-11-28T19:00:46.190Z,94.98
2022-11-28T19:04:46.511Z,94.95
2022-11-28T19:08:45.820Z,94.88
2022-11-28T19:12:49.802Z,95.12
2022-11-28T19:16:50.058Z,94.99
2022-11-28T19:20:49.904Z,95.43
2022-11-28T19:24:56.878Z,95.38
2022-11-28T19:28:59.774Z,95.56
2022-11-28T19:32:59.561Z,96.25
2022-11-28T19:36:59.398Z,96.01
2022-11-28T19:41:00.600Z,95.97
2022-11-28T19:45:01.780Z,95.74
2022-11-28T19:49:02.566Z,95.23
2022-11-28T19:53:02.199Z,95.88
2022-11-28T19:57:02.167Z,95.91
2022-11-28T20:01:07.789Z,94.10
2022-11-28T20:05:08.223Z,94.71
2022-11-28T20:09:12.438Z,94.30
2022-11-28T20:13:11.769Z,95.21
2022-11-28T20:17:13.605Z,95.61
2022-11-28T20:21:15.329Z,95.42
2022-11-28T20:25:20.501Z,95.05
2022-11-28T20:29:26.347Z,95.79
2022-11-28T20:33:28.253Z,95.96
2022-11-28T20:37:27.889Z,95.41
2022-11-28T20:41:28.484Z,95.01
2022-11-28T20:45:28.389Z,95.35
2022-11-28T20:49:30.251Z,95.63
2022-11-28T20:53:29.640Z,94.82
2022-11-28T20:57:29.738Z,94.25
2022-11-28T21:01:30.628Z,95.06
2022-11-28T21:05:32.464Z,93.65
2022-11-28T21:09:32.016Z,94.03
2022-11-28T21:13:33.668Z,93.88
2022-11-28T21:17:33.338Z,93.30
2022-11-28T21:21:35.542Z,92.97
2022-11-28T21:25:40.024Z,92.68
2022-11-28T21:29:48.368Z,91.96
2022-11-28T21:33:49.903Z,92.02
2022-11-28T21:37:51.696Z,91.59
2022-11-28T21:41:52.783Z,90.69
2022-11-28T21:45:52.833Z,90.42
2022-11-28T21:49:53.235Z,89.17
2022-11-28T21:53:54.803Z,89.12
2022-11-28T21:57:57.314Z,87.53
2022-11-28T22:02:05.989Z,87.64
2022-11-28T22:06:17.195Z,87.24
2022-11-28T22:10:19.057Z,87.97
2022-11-28T22:14:19.225Z,87.63
2022-11-28T22:18:18.602Z,87.81
2022-11-28T22:22:18.537Z,87.50
2022-11-28T22:26:19.946Z,88.09
2022-11-28T22:30:19.709Z,88.21
2022-11-28T22:34:19.162Z,88.33
2022-11-28T22:38:20.289Z,88.72
2022-11-28T22:42:21.901Z,88.52
2022-11-28T22:46:21.587Z,88.06
2022-11-28T22:50:23.562Z,88.67
2022-11-28T22:54:23.109Z,88.87
2022-11-28T22:58:24.646Z,89.96
2022-11-28T23:02:25.164Z,88.73
2022-11-28T23:06:27.215Z,88.99
2022-11-28T23:10:27.158Z,89.27
2022-11-28T23:14:30.035Z,90.18
2022-11-28T23:18:30.529Z,88.99
2022-11-28T23:22:29.861Z,89.87
2022-11-28T23:26:31.376Z,89.56
2022-11-28T23:30:33.626Z,89.69
2022-11-28T23:34:33.727Z,89.19
2022-11-28T23:38:33.048Z,90.14
2022-11-28T23:42:32.081Z,91.09
2022-11-28T23:46:34.171Z,91.50
2022-11-28T23:50:33.527Z,92.82
2022-11-28T23:54:33.354Z,93.08
2022-11-28T23:58:33.373Z,92.53
